Beaver State — WQVZ — position and weather

sailwx.info

Track history (hours):
 
Tides and Currents Weather Stations Pressure Air Temp Water Temp Dewpoint Dewpoint Depression Visibility Wind Speed Wind Dir Waves Ship Positions

Beaver State

Owner: MARITIME ADMINISTRATION, WASHINGTON, DC. More information available from US FCC via Universal Licensing System and Coast Guard Vessel Documentation Center.

Last reported at 2015-Aug-22 21:16 UTC. Time now 2015-Sep-03 04:38 UTC.
Position N 43°13' W 128°48'.
Warning: this ship's position is 11 days out of date.

Length 203 m; draft 9.2 m.

Type: Ship. MMSI: 368949000.

Date/timePositionNaut miles runAvg speedWind from/ knotsBaromVisibWave heightAir tempDewpointWater temp
2015-Aug-22 21:16N 43°13' W 128°48'6010.3
2015-Aug-22 15:27N 43°52' W 127°46'9715.9
2015-Aug-22 09:22N 44°58' W 126°06'1315.2
2015-Aug-22 08:29N 45°07' W 125°52'4615.7
2015-Aug-22 05:33N 45°40' W 125°07'1616.0
2015-Aug-22 04:33N 45°50' W 124°50'1615.9
2015-Aug-22 03:33N 45°59' W 124°31'1515.4
2015-Aug-22 02:33N 46°09' W 124°14'1110.7
2015-Aug-22 01:33N 46°15' W 124°01'1211.9
2015-Aug-22 00:33N 46°09' W 124°15'1010.2
2015-Aug-21 23:33N 46°02' W 124°26'1 1.2
2015-Aug-21 22:33N 46°03' W 124°26'6 6.4
2015-Aug-21 21:33N 46°03' W 124°35'6 5.9
2015-Aug-21 20:33N 46°03' W 124°43'6 6.3
2015-Aug-21 19:34N 46°04' W 124°52'9 8.9
2015-Aug-21 18:33N 46°06' W 125°05'9 9.0
2015-Aug-21 17:33N 46°07' W 125°18'9 9.2
2015-Aug-21 16:33N 46°09' W 125°31'19 8.7
2015-Aug-21 14:25N 46°11' W 125°57'22 3.1
2015-Aug-21 07:14N 46°14' W 125°26'6 8.3
2015-Aug-21 06:31N 46°14' W 125°17'8 8.0
2015-Aug-21 05:33N 46°13' W 125°06'8 8.2
2015-Aug-21 04:33N 46°14' W 124°54'4 4.5
2015-Aug-21 03:33N 46°13' W 124°48'5 4.8
2015-Aug-21 02:33N 46°11' W 124°41'1212.3
2015-Aug-21 01:33N 46°10' W 124°24'1110.7
2015-Aug-21 00:33N 46°13' W 124°09'10 9.7
2015-Aug-20 23:33N 46°11' W 123°55'9 8.8
2015-Aug-20 22:33N 46°14' W 123°43'1111.3
2015-Aug-20 21:33N 46°15' W 123°26'10 9.7
2015-Aug-20 20:33N 46°10' W 123°14'1312.8
2015-Aug-20 19:33N 46°06' W 122°57'10 9.9
2015-Aug-20 18:33N 45°58' W 122°49'1312.7
2015-Aug-20 17:33N 45°45' W 122°46'10 9.5
2015-Aug-20 16:33N 45°36' W 122°47'3 2.6
2015-Aug-20 15:33N 45°34' W 122°43'0 0.0
2015-Aug-20 14:27N 45°34' W 122°43'0 0.0
2015-Aug-20 13:33N 45°34' W 122°43'0 0.0
2015-Aug-20 12:18N 45°34' W 122°43'0 0.0
2015-Aug-20 11:33N 45°34' W 122°43'0 0.0
2015-Aug-20 10:33N 45°34' W 122°43'0 0.0
2015-Aug-20 09:33N 45°34' W 122°43'0 0.0
2015-Aug-20 08:27N 45°34' W 122°43'0 0.0
2015-Aug-20 07:30N 45°34' W 122°43'0 0.0
2015-Aug-20 06:27N 45°34' W 122°43'0 0.0
2015-Aug-20 05:30N 45°34' W 122°43'0 0.0
2015-Aug-20 04:15N 45°34' W 122°43'0 0.0
2015-Aug-20 03:24N 45°34' W 122°43'0 0.0
2015-Aug-20 02:33N 45°34' W 122°43'0 0.0
2015-Aug-20 01:30N 45°34' W 122°43'0 0.0
2015-Aug-20 00:33N 45°34' W 122°43'0 0.0
2015-Aug-19 23:21N 45°34' W 122°43'0 0.0
2015-Aug-19 22:27N 45°34' W 122°43'0 0.0
2015-Aug-19 21:15N 45°34' W 122°43'0 0.0
2015-Aug-19 18:21N 45°34' W 122°43'0 0.0
2015-Aug-19 17:27N 45°34' W 122°43'0 0.0
2015-Aug-19 16:33N 45°34' W 122°43'0 0.0
2015-Aug-19 15:33N 45°34' W 122°43'0 0.0
2015-Aug-19 14:33N 45°34' W 122°43'0 0.0
2015-Aug-19 13:33N 45°34' W 122°43'0 0.0
2015-Aug-19 12:30N 45°34' W 122°43'0 0.0
2015-Aug-19 11:18N 45°34' W 122°43'0 0.0
2015-Aug-19 10:33N 45°34' W 122°43'0 0.0
2015-Aug-19 09:33N 45°34' W 122°43'0 0.0
2015-Aug-19 08:33N 45°34' W 122°43'0 0.0
2015-Aug-19 07:33N 45°34' W 122°43'0 0.0
2015-Aug-19 06:33N 45°34' W 122°43'0 0.0
2015-Aug-19 05:33N 45°34' W 122°43'0 0.0
2015-Aug-19 04:27N 45°34' W 122°43'0 0.0
2015-Aug-19 03:33N 45°34' W 122°43'0 0.0
2015-Aug-19 02:33N 45°34' W 122°43'0 0.0
2015-Aug-19 01:33N 45°34' W 122°43'0 0.0
2015-Aug-19 00:27N 45°34' W 122°43'0 0.0
2015-Aug-18 23:27N 45°34' W 122°43'0 0.0
2015-Aug-18 22:33N 45°34' W 122°43'0 0.0
2015-Aug-18 21:33N 45°34' W 122°43'0 0.0
2015-Aug-18 20:33N 45°34' W 122°43'0 0.0
2015-Aug-18 19:33N 45°34' W 122°43'0 0.0
2015-Aug-18 18:18N 45°34' W 122°43'0 0.0
2015-Aug-18 17:33N 45°34' W 122°43'0 0.0
2015-Aug-18 16:24N 45°34' W 122°43'0 0.0
2015-Aug-18 15:24N 45°34' W 122°43'0 0.0
2015-Aug-18 14:33N 45°34' W 122°43'0 0.0
2015-Aug-18 13:30N 45°34' W 122°43'0 0.0
2015-Aug-18 12:30N 45°34' W 122°43'0 0.0
2015-Aug-18 11:33N 45°34' W 122°43'0 0.0
2015-Aug-18 10:27N 45°34' W 122°43'0 0.0
2015-Aug-18 09:33N 45°34' W 122°43'0 0.0
2015-Aug-18 08:30N 45°34' W 122°43'0 0.0
2015-Aug-18 07:21N 45°34' W 122°43'0 0.0
2015-Aug-18 06:33N 45°34' W 122°43'0 0.0
2015-Aug-18 05:30N 45°34' W 122°43'0 0.0
2015-Aug-18 04:30N 45°34' W 122°43'0 0.0
2015-Aug-18 04:00N 45°34' W 122°43'0 0.0
2015-Aug-18 03:30N 45°34' W 122°43'0 0.0
2015-Aug-18 02:30N 45°34' W 122°43'0 0.0
2015-Aug-18 01:21N 45°34' W 122°43'0 0.0
2015-Aug-18 00:24N 45°34' W 122°43'0 0.0
2015-Aug-17 23:27N 45°34' W 122°43'0 0.0
2015-Aug-17 22:30N 45°34' W 122°43'0 0.0
2015-Aug-17 21:30N 45°34' W 122°43'0 0.0
2015-Aug-17 20:30N 45°34' W 122°43'0 0.0
2015-Aug-17 19:30N 45°34' W 122°43'0 0.0
2015-Aug-17 18:24N 45°34' W 122°43'0 0.0
2015-Aug-17 17:21N 45°34' W 122°43'0 0.0
2015-Aug-17 16:30N 45°34' W 122°43'0 0.0
2015-Aug-17 15:30N 45°34' W 122°43'0 0.0
2015-Aug-17 14:21N 45°34' W 122°43'0 0.0
2015-Aug-17 13:30N 45°34' W 122°43'0 0.0
2015-Aug-17 12:30N 45°34' W 122°43'0 0.0
2015-Aug-17 11:30N 45°34' W 122°43'0 0.0
2015-Aug-17 10:33N 45°34' W 122°43'0 0.0
2015-Aug-17 09:30N 45°34' W 122°43'0 0.0
2015-Aug-17 08:33N 45°34' W 122°43'0 0.0
2015-Aug-17 07:33N 45°34' W 122°43'0 0.0
2015-Aug-17 06:33N 45°34' W 122°43'0 0.0
2015-Aug-17 05:33N 45°34' W 122°43'0 0.0
2015-Aug-17 04:30N 45°34' W 122°43'0 0.0
2015-Aug-17 03:33N 45°34' W 122°43'0 0.0
2015-Aug-17 02:27N 45°34' W 122°43'0 0.0
2015-Aug-17 01:30N 45°34' W 122°43'0 0.0
2015-Aug-17 00:33N 45°34' W 122°43'0 0.0
2015-Aug-16 23:33N 45°34' W 122°43'0 0.0
2015-Aug-16 22:30N 45°34' W 122°43'0 0.0
2015-Aug-16 21:23N 45°34' W 122°43'0 0.0
2015-Aug-16 20:32N 45°34' W 122°43'0 0.0
2015-Aug-16 19:33N 45°34' W 122°43'0 0.0
2015-Aug-16 18:06N 45°34' W 122°43'0 0.0
2015-Aug-16 17:33N 45°34' W 122°43'0 0.0
2015-Aug-16 16:33N 45°34' W 122°43'0 0.0
2015-Aug-16 15:33N 45°34' W 122°43'0 0.0
2015-Aug-16 14:27N 45°34' W 122°43'0 0.0
2015-Aug-16 13:33N 45°34' W 122°43'0 0.0
2015-Aug-16 12:33N 45°34' W 122°43'0 0.0
2015-Aug-16 11:33N 45°34' W 122°43'0 0.0
2015-Aug-16 10:33N 45°34' W 122°43'0 0.0
2015-Aug-16 09:33N 45°34' W 122°43'0 0.0
2015-Aug-16 08:27N 45°34' W 122°43'0 0.0
2015-Aug-16 07:33N 45°34' W 122°43'0 0.0
2015-Aug-16 06:33N 45°34' W 122°43'0 0.0
2015-Aug-16 05:12N 45°34' W 122°43'0 0.0
2015-Aug-16 04:27N 45°34' W 122°43'0 0.0
2015-Aug-16 03:30N 45°34' W 122°43'0 0.0
2015-Aug-16 02:33N 45°34' W 122°43'0 0.0
2015-Aug-16 01:33N 45°34' W 122°43'0 0.0
2015-Aug-16 00:30N 45°34' W 122°43'0 0.0
2015-Aug-15 23:24N 45°34' W 122°43'0 0.0
2015-Aug-15 22:24N 45°34' W 122°43'0 0.0
2015-Aug-15 21:30N 45°34' W 122°43'0 0.0
2015-Aug-15 20:30N 45°34' W 122°43'0 0.0
2015-Aug-15 19:33N 45°34' W 122°43'0 0.0
2015-Aug-15 18:24N 45°34' W 122°43'0 0.0
2015-Aug-15 17:30N 45°34' W 122°43'0 0.0
2015-Aug-15 16:27N 45°34' W 122°43'0 0.0
2015-Aug-15 15:27N 45°34' W 122°43'0 0.0
2015-Aug-15 14:18N 45°34' W 122°43'0 0.0
2015-Aug-15 13:30N 45°34' W 122°43'0 0.0
2015-Aug-15 12:30N 45°34' W 122°43'0 0.0
2015-Aug-15 11:27N 45°34' W 122°43'0 0.0
2015-Aug-15 10:33N 45°34' W 122°43'0 0.0
2015-Aug-15 09:33N 45°34' W 122°43'0 0.0
2015-Aug-15 08:33N 45°34' W 122°43'0 0.0
2015-Aug-15 07:33N 45°34' W 122°43'0 0.0
2015-Aug-15 06:27N 45°34' W 122°43'0 0.0
2015-Aug-15 05:33N 45°34' W 122°43'0 0.0
2015-Aug-15 04:30N 45°34' W 122°43'0 0.0
2015-Aug-15 03:27N 45°34' W 122°43'0 0.0
2015-Aug-15 02:24N 45°34' W 122°43'0 0.0
2015-Aug-15 01:33N 45°34' W 122°43'0 0.0
2015-Aug-15 00:30N 45°34' W 122°43'0 0.0
2015-Aug-14 23:30N 45°34' W 122°43'0 0.0
2015-Aug-14 22:33N 45°34' W 122°43'0 0.0
2015-Aug-14 21:33N 45°34' W 122°43'0 0.0
2015-Aug-14 20:27N 45°34' W 122°43'0 0.0
2015-Aug-14 18:33N 45°34' W 122°43'0 0.0
2015-Aug-14 17:33N 45°34' W 122°43'0 0.0
2015-Aug-14 16:09N 45°34' W 122°43'0 0.0
2015-Aug-14 15:30N 45°34' W 122°43'0 0.0
2015-Aug-14 14:27N 45°34' W 122°43'0 0.0
2015-Aug-14 13:30N 45°34' W 122°43'0 0.0
2015-Aug-14 12:33N 45°34' W 122°43'0 0.0
2015-Aug-14 11:21N 45°34' W 122°43'0 0.0
2015-Aug-14 10:33N 45°34' W 122°43'0 0.0
2015-Aug-14 09:24N 45°34' W 122°43'0 0.0
2015-Aug-14 08:33N 45°34' W 122°43'0 0.0
2015-Aug-14 06:24N 45°34' W 122°43'0 0.0
2015-Aug-14 05:33N 45°34' W 122°43'0 0.0
2015-Aug-14 04:30N 45°34' W 122°43'0 0.0
2015-Aug-14 03:33N 45°34' W 122°43'0 0.0
2015-Aug-14 02:33N 45°34' W 122°43'0 0.0
2015-Aug-14 01:33N 45°34' W 122°43'0 0.0
2015-Aug-14 00:33N 45°34' W 122°43'0 0.0
2015-Aug-13 23:33N 45°34' W 122°43'0 0.0
2015-Aug-13 22:30N 45°34' W 122°43'0 0.0
2015-Aug-13 21:33N 45°34' W 122°43'0 0.0
2015-Aug-13 20:33N 45°34' W 122°43'0 0.0
2015-Aug-13 19:33N 45°34' W 122°43'0 0.0
2015-Aug-13 18:33N 45°34' W 122°43'0 0.0
2015-Aug-13 17:33N 45°34' W 122°43'0 0.0
2015-Aug-13 16:33N 45°34' W 122°43'0 0.0
2015-Aug-13 15:30N 45°34' W 122°43'0 0.0
2015-Aug-13 14:33N 45°34' W 122°43'0 0.0
2015-Aug-13 13:33N 45°34' W 122°43'0 0.0
2015-Aug-13 12:33N 45°34' W 122°43'0 0.0
2015-Aug-13 11:33N 45°34' W 122°43'0 0.0
2015-Aug-13 10:33N 45°34' W 122°43'0 0.0
2015-Aug-13 09:33N 45°34' W 122°43'0 0.0
2015-Aug-13 08:33N 45°34' W 122°43'0 0.0
2015-Aug-13 07:21N 45°34' W 122°43'0 0.0
2015-Aug-13 06:30N 45°34' W 122°43'0 0.0
2015-Aug-13 05:33N 45°34' W 122°43'0 0.0
2015-Aug-13 04:33N 45°34' W 122°43'0 0.0
2015-Aug-13 03:32N 45°34' W 122°43'0 0.0
2015-Aug-13 02:30N 45°34' W 122°43'0 0.0
2015-Aug-13 01:32N 45°34' W 122°43'0 0.0
2015-Aug-13 00:32N 45°34' W 122°43'0 0.0
2015-Aug-12 23:30N 45°34' W 122°43'0 0.0
2015-Aug-12 22:23N 45°34' W 122°43'0 0.0
2015-Aug-12 21:23N 45°34' W 122°43'  
Track history (hours):
 
Tides and Currents Weather Stations Pressure Air Temp Water Temp Dewpoint Dewpoint Depression Visibility Wind Speed Wind Dir Waves Ship Positions

Beaver State

Owner: MARITIME ADMINISTRATION, WASHINGTON, DC. More information available from US FCC via Universal Licensing System and Coast Guard Vessel Documentation Center.

Last reported at 2015-Aug-22 21:16 UTC. Time now 2015-Sep-03 04:38 UTC.
Position N 43°13' W 128°48'.
Warning: this ship's position is 11 days out of date.

Length 203 m; draft 9.2 m.

Type: Ship. MMSI: 368949000.

Date/timePositionNaut miles runAvg speedWind from/ knotsBaromVisibWave heightAir tempDewpointWater temp
2015-Aug-22 21:16N 43°13' W 128°48'6010.3
2015-Aug-22 15:27N 43°52' W 127°46'9715.9
2015-Aug-22 09:22N 44°58' W 126°06'1315.2
2015-Aug-22 08:29N 45°07' W 125°52'4615.7
2015-Aug-22 05:33N 45°40' W 125°07'1616.0
2015-Aug-22 04:33N 45°50' W 124°50'1615.9
2015-Aug-22 03:33N 45°59' W 124°31'1515.4
2015-Aug-22 02:33N 46°09' W 124°14'1110.7
2015-Aug-22 01:33N 46°15' W 124°01'1211.9
2015-Aug-22 00:33N 46°09' W 124°15'1010.2
2015-Aug-21 23:33N 46°02' W 124°26'1 1.2
2015-Aug-21 22:33N 46°03' W 124°26'6 6.4
2015-Aug-21 21:33N 46°03' W 124°35'6 5.9
2015-Aug-21 20:33N 46°03' W 124°43'6 6.3
2015-Aug-21 19:34N 46°04' W 124°52'9 8.9
2015-Aug-21 18:33N 46°06' W 125°05'9 9.0
2015-Aug-21 17:33N 46°07' W 125°18'9 9.2
2015-Aug-21 16:33N 46°09' W 125°31'19 8.7
2015-Aug-21 14:25N 46°11' W 125°57'22 3.1
2015-Aug-21 07:14N 46°14' W 125°26'6 8.3
2015-Aug-21 06:31N 46°14' W 125°17'8 8.0
2015-Aug-21 05:33N 46°13' W 125°06'8 8.2
2015-Aug-21 04:33N 46°14' W 124°54'4 4.5
2015-Aug-21 03:33N 46°13' W 124°48'5 4.8
2015-Aug-21 02:33N 46°11' W 124°41'1212.3
2015-Aug-21 01:33N 46°10' W 124°24'1110.7
2015-Aug-21 00:33N 46°13' W 124°09'10 9.7
2015-Aug-20 23:33N 46°11' W 123°55'9 8.8
2015-Aug-20 22:33N 46°14' W 123°43'1111.3
2015-Aug-20 21:33N 46°15' W 123°26'10 9.7
2015-Aug-20 20:33N 46°10' W 123°14'1312.8
2015-Aug-20 19:33N 46°06' W 122°57'10 9.9
2015-Aug-20 18:33N 45°58' W 122°49'1312.7
2015-Aug-20 17:33N 45°45' W 122°46'10 9.5
2015-Aug-20 16:33N 45°36' W 122°47'3 2.6
2015-Aug-20 15:33N 45°34' W 122°43'0 0.0
2015-Aug-20 14:27N 45°34' W 122°43'0 0.0
2015-Aug-20 13:33N 45°34' W 122°43'0 0.0
2015-Aug-20 12:18N 45°34' W 122°43'0 0.0
2015-Aug-20 11:33N 45°34' W 122°43'0 0.0
2015-Aug-20 10:33N 45°34' W 122°43'0 0.0
2015-Aug-20 09:33N 45°34' W 122°43'0 0.0
2015-Aug-20 08:27N 45°34' W 122°43'0 0.0
2015-Aug-20 07:30N 45°34' W 122°43'0 0.0
2015-Aug-20 06:27N 45°34' W 122°43'0 0.0
2015-Aug-20 05:30N 45°34' W 122°43'0 0.0
2015-Aug-20 04:15N 45°34' W 122°43'0 0.0
2015-Aug-20 03:24N 45°34' W 122°43'0 0.0
2015-Aug-20 02:33N 45°34' W 122°43'0 0.0
2015-Aug-20 01:30N 45°34' W 122°43'0 0.0
2015-Aug-20 00:33N 45°34' W 122°43'0 0.0
2015-Aug-19 23:21N 45°34' W 122°43'0 0.0
2015-Aug-19 22:27N 45°34' W 122°43'0 0.0
2015-Aug-19 21:15N 45°34' W 122°43'0 0.0
2015-Aug-19 18:21N 45°34' W 122°43'0 0.0
2015-Aug-19 17:27N 45°34' W 122°43'0 0.0
2015-Aug-19 16:33N 45°34' W 122°43'0 0.0
2015-Aug-19 15:33N 45°34' W 122°43'0 0.0
2015-Aug-19 14:33N 45°34' W 122°43'0 0.0
2015-Aug-19 13:33N 45°34' W 122°43'0 0.0
2015-Aug-19 12:30N 45°34' W 122°43'0 0.0
2015-Aug-19 11:18N 45°34' W 122°43'0 0.0
2015-Aug-19 10:33N 45°34' W 122°43'0 0.0
2015-Aug-19 09:33N 45°34' W 122°43'0 0.0
2015-Aug-19 08:33N 45°34' W 122°43'0 0.0
2015-Aug-19 07:33N 45°34' W 122°43'0 0.0
2015-Aug-19 06:33N 45°34' W 122°43'0 0.0
2015-Aug-19 05:33N 45°34' W 122°43'0 0.0
2015-Aug-19 04:27N 45°34' W 122°43'0 0.0
2015-Aug-19 03:33N 45°34' W 122°43'0 0.0
2015-Aug-19 02:33N 45°34' W 122°43'0 0.0
2015-Aug-19 01:33N 45°34' W 122°43'0 0.0
2015-Aug-19 00:27N 45°34' W 122°43'0 0.0
2015-Aug-18 23:27N 45°34' W 122°43'0 0.0
2015-Aug-18 22:33N 45°34' W 122°43'0 0.0
2015-Aug-18 21:33N 45°34' W 122°43'0 0.0
2015-Aug-18 20:33N 45°34' W 122°43'0 0.0
2015-Aug-18 19:33N 45°34' W 122°43'0 0.0
2015-Aug-18 18:18N 45°34' W 122°43'0 0.0
2015-Aug-18 17:33N 45°34' W 122°43'0 0.0
2015-Aug-18 16:24N 45°34' W 122°43'0 0.0
2015-Aug-18 15:24N 45°34' W 122°43'0 0.0
2015-Aug-18 14:33N 45°34' W 122°43'0 0.0
2015-Aug-18 13:30N 45°34' W 122°43'0 0.0
2015-Aug-18 12:30N 45°34' W 122°43'0 0.0
2015-Aug-18 11:33N 45°34' W 122°43'0 0.0
2015-Aug-18 10:27N 45°34' W 122°43'0 0.0
2015-Aug-18 09:33N 45°34' W 122°43'0 0.0
2015-Aug-18 08:30N 45°34' W 122°43'0 0.0
2015-Aug-18 07:21N 45°34' W 122°43'0 0.0
2015-Aug-18 06:33N 45°34' W 122°43'0 0.0
2015-Aug-18 05:30N 45°34' W 122°43'0 0.0
2015-Aug-18 04:30N 45°34' W 122°43'0 0.0
2015-Aug-18 04:00N 45°34' W 122°43'0 0.0
2015-Aug-18 03:30N 45°34' W 122°43'0 0.0
2015-Aug-18 02:30N 45°34' W 122°43'0 0.0
2015-Aug-18 01:21N 45°34' W 122°43'0 0.0
2015-Aug-18 00:24N 45°34' W 122°43'0 0.0
2015-Aug-17 23:27N 45°34' W 122°43'0 0.0
2015-Aug-17 22:30N 45°34' W 122°43'0 0.0
2015-Aug-17 21:30N 45°34' W 122°43'0 0.0
2015-Aug-17 20:30N 45°34' W 122°43'0 0.0
2015-Aug-17 19:30N 45°34' W 122°43'0 0.0
2015-Aug-17 18:24N 45°34' W 122°43'0 0.0
2015-Aug-17 17:21N 45°34' W 122°43'0 0.0
2015-Aug-17 16:30N 45°34' W 122°43'0 0.0
2015-Aug-17 15:30N 45°34' W 122°43'0 0.0
2015-Aug-17 14:21N 45°34' W 122°43'0 0.0
2015-Aug-17 13:30N 45°34' W 122°43'0 0.0
2015-Aug-17 12:30N 45°34' W 122°43'0 0.0
2015-Aug-17 11:30N 45°34' W 122°43'0 0.0
2015-Aug-17 10:33N 45°34' W 122°43'0 0.0
2015-Aug-17 09:30N 45°34' W 122°43'0 0.0
2015-Aug-17 08:33N 45°34' W 122°43'0 0.0
2015-Aug-17 07:33N 45°34' W 122°43'0 0.0
2015-Aug-17 06:33N 45°34' W 122°43'0 0.0
2015-Aug-17 05:33N 45°34' W 122°43'0 0.0
2015-Aug-17 04:30N 45°34' W 122°43'0 0.0
2015-Aug-17 03:33N 45°34' W 122°43'0 0.0
2015-Aug-17 02:27N 45°34' W 122°43'0 0.0
2015-Aug-17 01:30N 45°34' W 122°43'0 0.0
2015-Aug-17 00:33N 45°34' W 122°43'0 0.0
2015-Aug-16 23:33N 45°34' W 122°43'0 0.0
2015-Aug-16 22:30N 45°34' W 122°43'0 0.0
2015-Aug-16 21:23N 45°34' W 122°43'0 0.0
2015-Aug-16 20:32N 45°34' W 122°43'0 0.0
2015-Aug-16 19:33N 45°34' W 122°43'0 0.0
2015-Aug-16 18:06N 45°34' W 122°43'0 0.0
2015-Aug-16 17:33N 45°34' W 122°43'0 0.0
2015-Aug-16 16:33N 45°34' W 122°43'0 0.0
2015-Aug-16 15:33N 45°34' W 122°43'0 0.0
2015-Aug-16 14:27N 45°34' W 122°43'0 0.0
2015-Aug-16 13:33N 45°34' W 122°43'0 0.0
2015-Aug-16 12:33N 45°34' W 122°43'0 0.0
2015-Aug-16 11:33N 45°34' W 122°43'0 0.0
2015-Aug-16 10:33N 45°34' W 122°43'0 0.0
2015-Aug-16 09:33N 45°34' W 122°43'0 0.0
2015-Aug-16 08:27N 45°34' W 122°43'0 0.0
2015-Aug-16 07:33N 45°34' W 122°43'0 0.0
2015-Aug-16 06:33N 45°34' W 122°43'0 0.0
2015-Aug-16 05:12N 45°34' W 122°43'0 0.0
2015-Aug-16 04:27N 45°34' W 122°43'0 0.0
2015-Aug-16 03:30N 45°34' W 122°43'0 0.0
2015-Aug-16 02:33N 45°34' W 122°43'0 0.0
2015-Aug-16 01:33N 45°34' W 122°43'0 0.0
2015-Aug-16 00:30N 45°34' W 122°43'0 0.0
2015-Aug-15 23:24N 45°34' W 122°43'0 0.0
2015-Aug-15 22:24N 45°34' W 122°43'0 0.0
2015-Aug-15 21:30N 45°34' W 122°43'0 0.0
2015-Aug-15 20:30N 45°34' W 122°43'0 0.0
2015-Aug-15 19:33N 45°34' W 122°43'0 0.0
2015-Aug-15 18:24N 45°34' W 122°43'0 0.0
2015-Aug-15 17:30N 45°34' W 122°43'0 0.0
2015-Aug-15 16:27N 45°34' W 122°43'0 0.0
2015-Aug-15 15:27N 45°34' W 122°43'0 0.0
2015-Aug-15 14:18N 45°34' W 122°43'0 0.0
2015-Aug-15 13:30N 45°34' W 122°43'0 0.0
2015-Aug-15 12:30N 45°34' W 122°43'0 0.0
2015-Aug-15 11:27N 45°34' W 122°43'0 0.0
2015-Aug-15 10:33N 45°34' W 122°43'0 0.0
2015-Aug-15 09:33N 45°34' W 122°43'0 0.0
2015-Aug-15 08:33N 45°34' W 122°43'0 0.0
2015-Aug-15 07:33N 45°34' W 122°43'0 0.0
2015-Aug-15 06:27N 45°34' W 122°43'0 0.0
2015-Aug-15 05:33N 45°34' W 122°43'0 0.0
2015-Aug-15 04:30N 45°34' W 122°43'0 0.0
2015-Aug-15 03:27N 45°34' W 122°43'0 0.0
2015-Aug-15 02:24N 45°34' W 122°43'0 0.0
2015-Aug-15 01:33N 45°34' W 122°43'0 0.0
2015-Aug-15 00:30N 45°34' W 122°43'0 0.0
2015-Aug-14 23:30N 45°34' W 122°43'0 0.0
2015-Aug-14 22:33N 45°34' W 122°43'0 0.0
2015-Aug-14 21:33N 45°34' W 122°43'0 0.0
2015-Aug-14 20:27N 45°34' W 122°43'0 0.0
2015-Aug-14 18:33N 45°34' W 122°43'0 0.0
2015-Aug-14 17:33N 45°34' W 122°43'0 0.0
2015-Aug-14 16:09N 45°34' W 122°43'0 0.0
2015-Aug-14 15:30N 45°34' W 122°43'0 0.0
2015-Aug-14 14:27N 45°34' W 122°43'0 0.0
2015-Aug-14 13:30N 45°34' W 122°43'0 0.0
2015-Aug-14 12:33N 45°34' W 122°43'0 0.0
2015-Aug-14 11:21N 45°34' W 122°43'0 0.0
2015-Aug-14 10:33N 45°34' W 122°43'0 0.0
2015-Aug-14 09:24N 45°34' W 122°43'0 0.0
2015-Aug-14 08:33N 45°34' W 122°43'0 0.0
2015-Aug-14 06:24N 45°34' W 122°43'0 0.0
2015-Aug-14 05:33N 45°34' W 122°43'0 0.0
2015-Aug-14 04:30N 45°34' W 122°43'0 0.0
2015-Aug-14 03:33N 45°34' W 122°43'0 0.0
2015-Aug-14 02:33N 45°34' W 122°43'0 0.0
2015-Aug-14 01:33N 45°34' W 122°43'0 0.0
2015-Aug-14 00:33N 45°34' W 122°43'0 0.0
2015-Aug-13 23:33N 45°34' W 122°43'0 0.0
2015-Aug-13 22:30N 45°34' W 122°43'0 0.0
2015-Aug-13 21:33N 45°34' W 122°43'0 0.0
2015-Aug-13 20:33N 45°34' W 122°43'0 0.0
2015-Aug-13 19:33N 45°34' W 122°43'0 0.0
2015-Aug-13 18:33N 45°34' W 122°43'0 0.0
2015-Aug-13 17:33N 45°34' W 122°43'0 0.0
2015-Aug-13 16:33N 45°34' W 122°43'0 0.0
2015-Aug-13 15:30N 45°34' W 122°43'0 0.0
2015-Aug-13 14:33N 45°34' W 122°43'0 0.0
2015-Aug-13 13:33N 45°34' W 122°43'0 0.0
2015-Aug-13 12:33N 45°34' W 122°43'0 0.0
2015-Aug-13 11:33N 45°34' W 122°43'0 0.0
2015-Aug-13 10:33N 45°34' W 122°43'0 0.0
2015-Aug-13 09:33N 45°34' W 122°43'0 0.0
2015-Aug-13 08:33N 45°34' W 122°43'0 0.0
2015-Aug-13 07:21N 45°34' W 122°43'0 0.0
2015-Aug-13 06:30N 45°34' W 122°43'0 0.0
2015-Aug-13 05:33N 45°34' W 122°43'0 0.0
2015-Aug-13 04:33N 45°34' W 122°43'0 0.0
2015-Aug-13 03:32N 45°34' W 122°43'0 0.0
2015-Aug-13 02:30N 45°34' W 122°43'0 0.0
2015-Aug-13 01:32N 45°34' W 122°43'0 0.0
2015-Aug-13 00:32N 45°34' W 122°43'0 0.0
2015-Aug-12 23:30N 45°34' W 122°43'0 0.0
2015-Aug-12 22:23N 45°34' W 122°43'0 0.0
2015-Aug-12 21:23N 45°34' W 122°43'  

Dump ship's entire track history